Time;durP1;ratioP1;P1;durP2;ratioP2;P2;SDS_P1;SDS_P2;PMS_P1;PMS_P2;Temp;Humidity;BMP_temperature;BMP_pressure;BME280_temperature;BME280_humidity;BME280_pressure;Samples;Min_cycle;Max_cycle;Signal;HPM_P1;HPM_P2
2022/06/10 00:00:15;;;;;;;;;;;16.50;99.90;;;13.11;100.00;101054.28;5104304;28;19928;-83
2022/06/10 00:02:43;;;;;;;;;;;16.50;99.90;;;13.12;100.00;101053.25;5092828;28;19959;-83
2022/06/10 00:05:13;;;;;;;;;;;16.40;99.90;;;13.14;100.00;101047.59;5102068;28;19938;-84
2022/06/10 00:07:40;;;;;;;;;;;16.50;99.90;;;13.13;100.00;101054.94;5113524;28;20379;-83
2022/06/10 00:10:08;;;;;;;;;;;16.40;99.90;;;13.14;100.00;101056.63;5076047;28;20304;-84
2022/06/10 00:12:37;;;;;;;;;;;16.40;99.90;;;13.10;100.00;101049.84;5093453;28;19935;-84
2022/06/10 00:15:05;;;;;;;;;;;16.40;99.90;;;13.10;100.00;101047.13;5095833;28;20427;-84
2022/06/10 00:17:32;;;;;;;;;;;16.40;99.90;;;13.07;100.00;101051.06;5105057;28;19924;-84
2022/06/10 00:19:59;;;;;;;;;;;16.40;99.90;;;13.04;100.00;101046.00;5112821;28;19942;-84
2022/06/10 00:22:26;;;;;;;;;;;16.40;99.90;;;13.02;100.00;101047.19;5094546;28;19935;-84
2022/06/10 00:24:54;;;;;;;;;;;16.40;99.90;;;12.99;100.00;101050.31;5101582;28;19928;-84
2022/06/10 00:27:21;;;;;;;;;;;16.40;99.90;;;12.95;100.00;101047.09;5113796;28;19939;-84
2022/06/10 00:29:50;;;;;;;;;;;16.40;99.90;;;12.89;100.00;101043.25;5087412;28;19924;-84
2022/06/10 00:32:18;;;;;;;;;;;16.30;99.90;;;12.86;100.00;101038.13;5093039;28;19924;-84
2022/06/10 00:34:45;;;;;;;;;;;16.30;99.90;;;12.83;100.00;101049.47;5099071;28;19930;-84
2022/06/10 00:37:12;;;;;;;;;;;16.30;99.90;;;12.79;100.00;101042.66;5106659;28;19959;-84
2022/06/10 00:39:39;;;;;;;;;;;16.30;99.90;;;12.76;100.00;101042.19;5092530;28;19928;-84
2022/06/10 00:42:07;;;;;;;;;;;16.30;99.90;;;12.72;100.00;101039.00;5092834;28;19928;-83
2022/06/10 00:44:38;;;;;;;;;;;16.20;99.90;;;12.68;100.00;101043.13;5104896;28;19924;-84
2022/06/10 00:47:15;;;;;;;;;;;16.20;99.90;;;12.60;100.00;101044.03;5113649;28;20395;-84
2022/06/10 00:49:46;;;;;;;;;;;16.20;99.90;;;12.60;100.00;101037.72;5102843;28;19934;-84
2022/06/10 00:52:22;;;;;;;;;;;16.20;99.90;;;12.57;100.00;101043.56;5100430;28;19948;-84
2022/06/10 00:54:50;;;;;;;;;;;16.10;99.90;;;12.52;100.00;101036.75;5108870;28;20402;-84
2022/06/10 00:57:20;;;;;;;;;;;16.10;99.90;;;12.48;100.00;101040.06;5116688;28;20022;-84
2022/06/10 00:59:51;;;;;;;;;;;16.10;99.90;;;12.44;100.00;101038.72;5103919;28;19924;-85
2022/06/10 01:02:23;;;;;;;;;;;16.10;99.90;;;12.45;100.00;101043.13;5095669;28;19955;-84
2022/06/10 01:04:51;;;;;;;;;;;16.00;99.90;;;12.41;100.00;101039.09;5079741;28;19928;-84
2022/06/10 01:07:21;;;;;;;;;;;16.00;99.90;;;12.38;100.00;101037.59;5093456;28;19924;-83
2022/06/10 01:09:49;;;;;;;;;;;16.00;99.90;;;12.35;100.00;101046.13;5074828;28;19924;-84
2022/06/10 01:12:32;;;;;;;;;;;16.00;99.90;;;12.36;100.00;101030.63;5093035;28;19928;-84
2022/06/10 01:15:12;;;;;;;;;;;15.90;99.90;;;12.38;100.00;101032.13;5111285;28;19927;-83
2022/06/10 01:17:57;;;;;;;;;;;15.90;99.90;;;12.37;100.00;101033.13;5111292;28;19963;-84
2022/06/10 01:20:31;;;;;;;;;;;15.90;99.90;;;12.38;100.00;101029.41;5092967;28;19972;-84
2022/06/10 01:23:46;;;;;;;;;;;15.90;99.90;;;12.42;100.00;101028.00;5101844;28;19946;-84
2022/06/10 01:30:03;;;;;;;;;;;15.90;99.90;;;12.47;100.00;101022.84;5095990;28;19928;-84
2022/06/10 01:32:35;;;;;;;;;;;15.90;99.90;;;12.47;100.00;101028.28;5095234;28;20310;-84
2022/06/10 01:35:14;;;;;;;;;;;15.90;99.90;;;12.47;100.00;101024.69;5099847;28;19928;-83
2022/06/10 01:37:45;;;;;;;;;;;15.90;99.90;;;12.44;100.00;101031.38;5111831;28;20014;-84
2022/06/10 01:40:21;;;;;;;;;;;15.90;99.90;;;12.42;100.00;101024.41;5103326;28;20048;-83
2022/06/10 01:42:55;;;;;;;;;;;15.90;99.90;;;12.41;100.00;101031.75;5090760;28;19924;-84
2022/06/10 01:45:30;;;;;;;;;;;15.80;99.90;;;12.41;100.00;101026.28;5101423;28;19981;-84
2022/06/10 01:48:03;;;;;;;;;;;15.80;99.90;;;12.42;100.00;101036.19;5111658;28;20089;-84
2022/06/10 01:50:35;;;;;;;;;;;15.80;99.90;;;12.38;100.00;101034.84;5093074;28;19928;-84
2022/06/10 01:53:08;;;;;;;;;;;15.80;99.90;;;12.36;100.00;101031.47;5091327;28;19928;-84
2022/06/10 01:55:40;;;;;;;;;;;15.80;99.90;;;12.35;100.00;101034.38;5110494;28;20384;-84
2022/06/10 01:58:11;;;;;;;;;;;15.80;99.90;;;12.37;100.00;101033.13;5092573;28;20406;-84
2022/06/10 02:00:43;;;;;;;;;;;15.80;99.90;;;12.36;100.00;101028.72;5074251;28;19924;-84
2022/06/10 02:03:18;;;;;;;;;;;15.80;99.90;;;12.35;100.00;101043.41;5071339;28;20019;-84
2022/06/10 02:05:49;;;;;;;;;;;15.80;99.90;;;12.36;100.00;101041.53;5109279;28;20398;-84
2022/06/10 02:08:20;;;;;;;;;;;15.80;99.90;;;12.32;100.00;101041.06;5090904;28;19924;-83
2022/06/10 02:10:52;;;;;;;;;;;15.80;99.90;;;12.35;100.00;101042.56;5096650;28;20456;-84
2022/06/10 02:13:22;;;;;;;;;;;15.80;99.90;;;12.39;100.00;101042.00;5091359;28;19925;-83
2022/06/10 02:15:52;;;;;;;;;;;15.80;99.90;;;12.41;100.00;101039.94;5109932;28;20047;-84
2022/06/10 02:18:25;;;;;;;;;;;15.80;99.90;;;12.39;100.00;101042.00;5104983;28;19959;-84
2022/06/10 02:20:55;;;;;;;;;;;15.80;99.90;;;12.40;100.00;101040.97;5099630;28;20035;-84
2022/06/10 02:23:25;;;;;;;;;;;15.80;99.90;;;12.38;100.00;101044.94;5111557;28;20014;-84
2022/06/10 02:25:56;;;;;;;;;;;15.80;99.90;;;12.40;100.00;101053.78;5110048;28;19932;-84
2022/06/10 02:28:26;;;;;;;;;;;15.80;99.90;;;12.37;100.00;101044.06;5092442;28;19932;-84
2022/06/10 02:30:56;;;;;;;;;;;15.80;99.90;;;12.38;100.00;101056.69;5090842;28;19981;-84
2022/06/10 02:33:24;;;;;;;;;;;15.80;99.90;;;12.36;100.00;101052.47;5092345;28;19927;-84
2022/06/10 02:35:57;;;;;;;;;;;15.80;99.90;;;12.35;100.00;101056.22;5092455;28;19932;-84
2022/06/10 02:38:32;;;;;;;;;;;15.70;99.90;;;12.34;100.00;101060.81;5090107;28;20380;-84
2022/06/10 02:41:05;;;;;;;;;;;15.80;99.90;;;12.30;100.00;101054.03;5093046;28;19932;-84
2022/06/10 02:43:36;;;;;;;;;;;15.70;99.90;;;12.27;100.00;101059.84;5091530;28;19939;-84
2022/06/10 02:46:08;;;;;;;;;;;15.70;99.90;;;12.28;100.00;101069.72;5090892;28;19924;-84
2022/06/10 02:48:48;;;;;;;;;;;15.80;99.90;;;12.26;100.00;101061.75;5102058;28;19924;-84
2022/06/10 02:51:16;;;;;;;;;;;15.70;99.90;;;12.28;100.00;101067.84;5094882;28;19924;-84
2022/06/10 02:53:43;;;;;;;;;;;15.70;99.90;;;12.31;100.00;101066.63;5103152;28;20292;-84
2022/06/10 02:56:16;;;;;;;;;;;15.70;99.90;;;12.28;100.00;101069.72;5110866;28;20321;-83
2022/06/10 03:01:38;;;;;;;;;;;15.70;99.90;;;12.25;100.00;101072.81;5089916;28;19935;-84
2022/06/10 03:04:15;;;;;;;;;;;15.70;99.90;;;12.23;100.00;101067.53;5104903;28;20010;-84
2022/06/10 03:06:57;;;;;;;;;;;15.70;99.90;;;12.27;100.00;101068.03;5110990;28;19931;-84
2022/06/10 03:09:32;;;;;;;;;;;15.70;99.90;;;12.28;100.00;101072.44;5103245;28;20287;-84
2022/06/10 03:12:06;;;;;;;;;;;15.70;99.90;;;12.29;100.00;101071.44;5071013;28;19931;-83
2022/06/10 03:14:43;;;;;;;;;;;15.70;99.90;;;12.32;100.00;101073.81;5110662;28;19927;-84
2022/06/10 03:17:19;;;;;;;;;;;15.70;99.90;;;12.27;100.00;101073.50;5106302;28;20335;-83
2022/06/10 03:19:58;;;;;;;;;;;15.70;99.90;;;12.31;100.00;101083.84;5106800;28;19932;-84
2022/06/10 03:22:35;;;;;;;;;;;15.70;99.90;;;12.36;100.00;101085.22;5097357;28;19927;-84
2022/06/10 03:25:08;;;;;;;;;;;15.70;99.90;;;12.35;100.00;101078.88;5110637;28;19934;-84
2022/06/10 03:27:42;;;;;;;;;;;15.70;99.90;;;12.36;100.00;101083.31;5095414;28;19924;-84
2022/06/10 03:30:14;;;;;;;;;;;15.70;99.90;;;12.37;100.00;101090.47;5089837;28;19931;-84
2022/06/10 03:32:47;;;;;;;;;;;15.70;99.90;;;12.38;100.00;101086.72;5105231;28;20027;-84
2022/06/10 03:35:19;;;;;;;;;;;15.70;99.90;;;12.41;100.00;101082.75;5108700;28;19934;-83
2022/06/10 03:37:48;;;;;;;;;;;15.70;99.90;;;12.39;100.00;101088.41;5094282;28;20011;-84
2022/06/10 03:40:18;;;;;;;;;;;15.70;99.90;;;12.44;100.00;101093.31;5089862;28;19924;-84
2022/06/10 03:42:48;;;;;;;;;;;15.70;99.90;;;12.49;100.00;101086.28;5104694;28;19998;-83
2022/06/10 03:45:17;;;;;;;;;;;15.70;99.90;;;12.52;100.00;101091.34;5110438;28;20404;-83
2022/06/10 03:47:44;;;;;;;;;;;15.70;99.90;;;12.54;100.00;101093.06;5095440;28;19924;-83
2022/06/10 03:50:15;;;;;;;;;;;15.70;99.90;;;12.57;100.00;101101.75;5093106;28;19928;-83
2022/06/10 03:52:44;;;;;;;;;;;15.70;99.90;;;12.60;100.00;101098.63;5110411;28;20030;-84
2022/06/10 03:55:16;;;;;;;;;;;15.70;99.90;;;12.65;100.00;101106.28;5107150;28;19936;-87
2022/06/10 03:57:43;;;;;;;;;;;15.70;99.90;;;12.64;100.00;101099.13;5089503;28;19928;-87
2022/06/10 04:00:15;;;;;;;;;;;15.70;99.90;;;12.63;100.00;101105.63;5091859;28;19970;-87
2022/06/10 04:02:43;;;;;;;;;;;15.70;99.90;;;12.68;100.00;101104.03;5092186;28;19928;-86
2022/06/10 04:05:11;;;;;;;;;;;15.80;99.90;;;12.73;100.00;101119.03;5089801;28;19989;-86
2022/06/10 04:07:39;;;;;;;;;;;15.90;99.90;;;12.76;100.00;101100.41;5089410;28;19928;-87
2022/06/10 04:10:10;;;;;;;;;;;15.80;99.90;;;12.84;100.00;101116.69;5089737;28;19928;-87
2022/06/10 04:12:37;;;;;;;;;;;15.80;99.90;;;12.89;100.00;101108.81;5069615;28;19924;-86
2022/06/10 04:15:05;;;;;;;;;;;15.80;99.90;;;12.94;100.00;101115.59;5069791;28;19929;-86
2022/06/10 04:17:32;;;;;;;;;;;15.80;99.90;;;13.00;100.00;101114.84;5086692;28;19974;-87
2022/06/10 04:19:59;;;;;;;;;;;15.90;99.90;;;13.06;100.00;101114.97;5092231;28;19932;-86
2022/06/10 04:22:27;;;;;;;;;;;15.90;99.90;;;13.11;100.00;101119.84;5091324;28;19924;-86
2022/06/10 04:24:54;;;;;;;;;;;15.90;99.90;;;13.16;100.00;101120.16;5095015;28;20284;-86
2022/06/10 04:27:23;;;;;;;;;;;15.90;99.90;;;13.23;100.00;101126.56;5102272;28;20015;-87
2022/06/10 04:29:50;;;;;;;;;;;16.00;99.90;;;13.31;100.00;101120.22;5108237;28;20307;-85
2022/06/10 04:32:17;;;;;;;;;;;16.00;99.90;;;13.35;100.00;101126.16;5093379;28;19928;-87
2022/06/10 04:34:44;;;;;;;;;;;16.10;99.90;;;13.48;100.00;101129.06;5094470;28;19928;-86
2022/06/10 04:37:11;;;;;;;;;;;16.10;99.90;;;13.64;100.00;101126.13;5112496;28;19924;-86
2022/06/10 04:39:38;;;;;;;;;;;16.20;99.90;;;13.78;100.00;101123.56;5098785;28;19928;-86
2022/06/10 04:42:06;;;;;;;;;;;16.30;99.90;;;13.93;100.00;101118.06;5113315;28;19930;-86
2022/06/10 04:44:35;;;;;;;;;;;16.40;99.90;;;14.11;100.00;101123.09;5112709;28;20030;-86
2022/06/10 04:47:02;;;;;;;;;;;16.50;99.90;;;14.26;100.00;101126.69;5093123;28;19928;-86
2022/06/10 04:49:30;;;;;;;;;;;16.60;99.90;;;14.45;100.00;101120.56;5082037;28;19993;-86
2022/06/10 04:51:57;;;;;;;;;;;16.70;99.90;;;14.53;100.00;101116.84;5113365;28;19976;-87
2022/06/10 04:54:24;;;;;;;;;;;16.70;99.90;;;14.69;100.00;101126.69;5112542;28;19967;-87
2022/06/10 04:56:51;;;;;;;;;;;16.80;99.90;;;14.97;100.00;101129.47;5084127;28;19978;-87
2022/06/10 04:59:18;;;;;;;;;;;16.90;99.90;;;15.22;100.00;101127.13;5074172;28;19924;-88
2022/06/10 05:01:47;;;;;;;;;;;17.00;99.90;;;15.43;100.00;101128.13;5088731;28;19931;-88
2022/06/10 05:07:12;;;;;;;;;;;17.20;99.90;;;15.92;100.00;101116.16;4970520;28;19947;-93
2022/06/10 05:09:40;;;;;;;;;;;17.30;99.90;;;16.18;100.00;101117.28;4951244;28;19982;-93
2022/06/10 05:12:07;;;;;;;;;;;17.40;99.90;;;16.35;100.00;101126.81;4971941;28;20379;-91
2022/06/10 05:14:35;;;;;;;;;;;17.50;99.90;;;16.45;100.00;101125.56;4968783;28;19934;-90
2022/06/10 05:17:04;;;;;;;;;;;17.60;99.90;;;16.57;100.00;101124.75;4993242;28;19924;-92
2022/06/10 05:19:32;;;;;;;;;;;17.60;99.90;;;16.77;100.00;101118.44;4958965;28;19936;-92
2022/06/10 05:21:59;;;;;;;;;;;17.70;99.90;;;16.98;100.00;101126.53;4970639;28;19930;-90
2022/06/10 05:24:26;;;;;;;;;;;17.70;99.90;;;17.19;100.00;101119.94;4968830;28;19961;-91
2022/06/10 05:26:53;;;;;;;;;;;17.80;99.90;;;17.34;100.00;101129.84;4977616;28;19970;-90
2022/06/10 05:29:20;;;;;;;;;;;17.90;99.90;;;17.52;100.00;101127.28;4969445;28;20390;-90
2022/06/10 05:31:47;;;;;;;;;;;18.00;99.90;;;17.55;100.00;101132.38;5018190;28;19930;-90
2022/06/10 05:37:17;;;;;;;;;;;18.10;99.90;;;17.14;100.00;101130.72;4893629;28;19935;-88
2022/06/10 05:39:44;;;;;;;;;;;18.20;99.90;;;16.83;100.00;101138.75;4922971;28;20309;-87
2022/06/10 05:42:12;;;;;;;;;;;18.10;99.90;;;16.50;100.00;101140.38;4935126;28;19937;-89
2022/06/10 05:44:41;;;;;;;;;;;18.10;99.90;;;16.30;100.00;101140.34;4967087;28;20368;-89
2022/06/10 05:47:09;;;;;;;;;;;18.10;99.90;;;16.16;100.00;101144.97;4968911;28;20445;-90
2022/06/10 05:49:40;;;;;;;;;;;18.10;99.90;;;15.95;100.00;101137.69;4964953;28;19936;-88
2022/06/10 05:52:10;;;;;;;;;;;18.10;99.90;;;15.87;100.00;101140.63;5033901;28;19934;-89
2022/06/10 05:54:38;;;;;;;;;;;18.00;99.90;;;15.76;100.00;101138.44;4968849;28;20271;-89
2022/06/10 05:57:06;;;;;;;;;;;18.00;99.90;;;15.63;100.00;101144.66;5032898;28;19930;-89
2022/06/10 05:59:33;;;;;;;;;;;18.00;99.90;;;15.54;100.00;101149.50;4993708;28;20419;-90
2022/06/10 06:02:01;;;;;;;;;;;17.90;99.90;;;15.46;100.00;101144.19;4987242;28;20366;-89
2022/06/10 06:04:28;;;;;;;;;;;17.90;99.90;;;15.40;100.00;101144.97;5003496;28;20038;-88
2022/06/10 06:06:56;;;;;;;;;;;17.90;99.90;;;15.37;100.00;101142.63;4964369;28;19941;-88
2022/06/10 06:09:23;;;;;;;;;;;17.80;99.90;;;15.38;100.00;101152.53;4977450;28;20024;-89
2022/06/10 06:11:54;;;;;;;;;;;17.80;99.90;;;15.32;100.00;101156.94;4987315;28;19936;-88
2022/06/10 06:14:22;;;;;;;;;;;17.80;99.90;;;15.30;100.00;101155.44;4974932;28;20025;-88
2022/06/10 06:16:53;;;;;;;;;;;17.70;99.90;;;15.31;100.00;101162.66;4968671;28;19930;-90
2022/06/10 06:19:21;;;;;;;;;;;17.70;99.90;;;15.30;100.00;101166.41;4977839;28;19937;-89
2022/06/10 06:21:48;;;;;;;;;;;17.70;99.90;;;15.33;100.00;101157.81;4966615;28;20034;-89
2022/06/10 06:24:16;;;;;;;;;;;17.80;99.90;;;15.33;100.00;101164.13;4976881;28;20056;-90
2022/06/10 06:26:43;;;;;;;;;;;17.70;99.90;;;15.39;100.00;101170.72;4967675;28;19930;-88
2022/06/10 06:29:11;;;;;;;;;;;17.80;99.90;;;15.42;100.00;101170.28;4979635;28;19937;-89
2022/06/10 06:31:38;;;;;;;;;;;17.80;99.90;;;15.47;100.00;101172.44;4990340;28;20656;-89
2022/06/10 06:34:06;;;;;;;;;;;17.70;99.90;;;15.51;100.00;101173.75;4967876;28;19964;-89
2022/06/10 06:36:38;;;;;;;;;;;17.70;99.90;;;15.51;100.00;101179.22;5034906;28;19928;-89
2022/06/10 06:39:06;;;;;;;;;;;17.70;99.90;;;15.55;100.00;101178.59;4976914;28;19934;-89
2022/06/10 06:41:34;;;;;;;;;;;17.70;99.90;;;15.55;100.00;101169.53;4967153;28;19930;-90
2022/06/10 06:44:04;;;;;;;;;;;17.80;99.90;;;15.59;100.00;101173.56;4966366;28;19930;-90
2022/06/10 06:46:34;;;;;;;;;;;17.80;99.90;;;15.61;100.00;101180.56;4967875;28;20099;-88
2022/06/10 06:49:01;;;;;;;;;;;17.80;99.90;;;15.69;100.00;101187.78;4967355;28;19930;-88
2022/06/10 06:51:30;;;;;;;;;;;17.80;99.90;;;15.72;100.00;101192.03;4968916;28;20452;-90
2022/06/10 06:53:58;;;;;;;;;;;17.80;99.90;;;15.78;100.00;101186.63;4962515;28;19926;-90
2022/06/10 06:56:26;;;;;;;;;;;17.80;99.90;;;15.85;100.00;101192.13;4967952;28;20719;-89
2022/06/10 06:58:54;;;;;;;;;;;17.80;99.90;;;15.95;100.00;101198.06;5000754;28;20791;-89
2022/06/10 07:01:21;;;;;;;;;;;17.90;99.90;;;16.03;100.00;101192.44;4968147;28;19934;-89
2022/06/10 07:03:49;;;;;;;;;;;17.90;99.90;;;16.12;100.00;101198.59;4967258;28;20333;-89
2022/06/10 07:06:16;;;;;;;;;;;17.90;99.90;;;16.16;100.00;101199.91;4967535;28;19930;-90
2022/06/10 07:08:43;;;;;;;;;;;17.90;99.90;;;16.17;100.00;101207.06;4962479;28;19974;-90
2022/06/10 07:11:10;;;;;;;;;;;17.90;99.90;;;16.26;100.00;101205.00;4962727;28;19957;-90
2022/06/10 07:13:38;;;;;;;;;;;18.00;99.90;;;16.29;100.00;101199.06;4954057;28;19984;-91
2022/06/10 07:16:08;;;;;;;;;;;17.90;99.90;;;16.30;100.00;101205.44;4950253;28;20386;-90
2022/06/10 07:18:35;;;;;;;;;;;17.90;99.90;;;16.27;100.00;101212.16;4967424;28;20009;-90
2022/06/10 07:21:02;;;;;;;;;;;18.00;99.90;;;16.25;100.00;101208.78;4967659;28;19933;-90
2022/06/10 07:23:29;;;;;;;;;;;18.00;99.90;;;16.24;100.00;101215.34;4968944;28;19929;-90
2022/06/10 07:25:58;;;;;;;;;;;18.00;99.90;;;16.23;100.00;101217.22;4968342;28;19930;-90
2022/06/10 07:28:25;;;;;;;;;;;18.00;99.90;;;16.19;100.00;101212.34;4968152;28;20390;-93
2022/06/10 07:30:52;;;;;;;;;;;18.00;99.90;;;16.29;100.00;101207.31;4969702;28;19933;-89
2022/06/10 07:33:21;;;;;;;;;;;18.10;99.90;;;16.36;100.00;101205.44;4968687;28;19952;-89
2022/06/10 07:35:48;;;;;;;;;;;18.10;99.90;;;16.50;100.00;101202.75;5035444;28;19957;-88
2022/06/10 07:38:15;;;;;;;;;;;18.10;99.90;;;16.60;100.00;101212.28;4967595;28;20387;-90
2022/06/10 07:43:30;;;;;;;;;;;18.20;99.90;;;16.77;100.00;101211.88;5035146;28;20387;-88
2022/06/10 07:45:58;;;;;;;;;;;18.20;99.90;;;16.75;100.00;101212.13;4967164;28;19937;-88
2022/06/10 07:48:26;;;;;;;;;;;18.20;99.90;;;16.77;100.00;101207.25;4967287;28;19930;-88
2022/06/10 07:50:54;;;;;;;;;;;18.30;99.90;;;16.94;100.00;101215.13;4967147;28;19926;-91
2022/06/10 07:53:21;;;;;;;;;;;18.30;99.90;;;17.16;100.00;101213.88;4968200;28;19977;-90
2022/06/10 07:55:48;;;;;;;;;;;18.40;99.90;;;17.40;100.00;101211.53;4968348;28;20370;-89
2022/06/10 07:58:17;;;;;;;;;;;18.40;99.90;;;17.76;100.00;101205.56;4970442;28;19926;-90
2022/06/10 08:00:45;;;;;;;;;;;18.50;99.90;;;18.11;100.00;101204.44;4970108;28;19930;-91
2022/06/10 08:03:13;;;;;;;;;;;18.50;99.90;;;18.44;98.40;101200.69;4983533;28;20301;-90
2022/06/10 08:05:41;;;;;;;;;;;18.60;99.90;;;18.62;98.31;101197.19;5048414;28;19928;-90
2022/06/10 08:08:09;;;;;;;;;;;18.70;99.90;;;18.73;96.73;101194.59;4984599;28;19979;-91
2022/06/10 08:10:38;;;;;;;;;;;18.80;99.90;;;18.89;98.39;101197.91;5022534;28;19929;-91
2022/06/10 08:13:06;;;;;;;;;;;19.00;99.90;;;18.95;96.45;101203.34;5012545;28;20010;-91
2022/06/10 08:15:33;;;;;;;;;;;19.10;99.90;;;18.89;97.04;101198.75;4964403;28;20011;-91
2022/06/10 08:18:01;;;;;;;;;;;19.20;99.90;;;18.91;98.12;101204.88;4964069;28;20030;-91
2022/06/10 08:23:13;;;;;;;;;;;19.40;99.90;;;18.99;96.62;101214.78;4970744;28;19930;-90
2022/06/10 08:25:40;;;;;;;;;;;19.50;99.90;;;19.07;97.12;101209.00;4969978;28;19930;-90
2022/06/10 08:28:07;;;;;;;;;;;19.60;99.90;;;19.23;97.72;101209.50;4958830;28;19930;-89
2022/06/10 08:30:35;;;;;;;;;;;19.60;99.90;;;19.39;98.04;101206.19;4984144;28;19970;-89
2022/06/10 08:33:03;;;;;;;;;;;19.80;99.90;;;19.51;98.39;101206.28;4965238;28;20013;-90
2022/06/10 08:35:31;;;;;;;;;;;19.90;99.90;;;19.54;94.64;101212.19;4967028;28;19927;-91
2022/06/10 08:37:58;;;;;;;;;;;19.90;99.90;;;19.50;94.07;101208.22;5032010;28;19952;-92
2022/06/10 08:40:33;;;;;;;;;;;19.90;99.90;;;19.66;93.87;101214.22;5047416;28;19929;-91
2022/06/10 08:43:04;;;;;;;;;;;19.90;99.90;;;19.75;93.83;101212.03;4963507;28;20009;-90
2022/06/10 08:45:34;;;;;;;;;;;20.00;99.90;;;19.73;94.09;101212.28;5047142;28;20455;-91
2022/06/10 08:48:13;;;;;;;;;;;20.10;99.90;;;19.65;92.28;101213.38;4951861;28;19930;-90
2022/06/10 08:51:06;;;;;;;;;;;20.10;99.90;;;19.67;90.90;101218.69;4965164;28;19930;-91
2022/06/10 08:53:56;;;;;;;;;;;20.10;99.90;;;20.00;93.27;101211.97;4961400;28;20063;-90
2022/06/10 08:56:31;;;;;;;;;;;20.20;99.90;;;20.21;91.16;101213.44;4966686;28;19930;-91
2022/06/10 08:59:02;;;;;;;;;;;20.30;99.90;;;20.23;88.46;101212.09;4965970;28;20013;-90
2022/06/10 09:01:32;;;;;;;;;;;20.30;99.90;;;20.28;88.17;101209.50;4988448;28;19926;-91
2022/06/10 09:04:04;;;;;;;;;;;20.40;99.90;;;20.38;87.25;101208.13;4968704;28;19942;-92
2022/06/10 09:06:44;;;;;;;;;;;20.40;99.90;;;20.43;85.98;101211.88;5040190;28;19968;-91
2022/06/10 09:09:13;;;;;;;;;;;20.40;99.90;;;20.41;88.54;101215.91;4960958;28;19927;-89
2022/06/10 09:11:47;;;;;;;;;;;20.40;99.90;;;20.20;86.63;101208.97;4964438;28;19981;-93
2022/06/10 09:14:17;;;;;;;;;;;20.40;99.90;;;19.92;87.96;101216.72;4946476;28;20025;-93
2022/06/10 09:16:49;;;;;;;;;;;20.40;99.90;;;19.62;88.51;101207.47;5017715;28;19977;-93
2022/06/10 09:19:24;;;;;;;;;;;20.30;99.90;;;19.62;91.32;101215.75;4999965;28;19926;-92
2022/06/10 09:21:59;;;;;;;;;;;20.30;99.90;;;19.62;91.83;101218.50;4952900;28;20012;-94
2022/06/10 09:24:28;;;;;;;;;;;20.30;99.90;;;19.60;89.21;101221.50;4970176;28;19930;-93
2022/06/10 09:27:06;;;;;;;;;;;20.30;99.90;;;19.56;88.76;101225.78;5002152;28;19964;-94
2022/06/10 09:29:37;;;;;;;;;;;20.20;99.90;;;19.59;92.01;101221.72;4997660;28;20030;-94
2022/06/10 09:32:12;;;;;;;;;;;20.20;99.90;;;19.60;93.93;101227.00;4971713;28;19972;-94
2022/06/10 09:34:50;;;;;;;;;;;20.20;99.90;;;19.50;93.74;101233.06;4971711;28;20024;-93
2022/06/10 09:37:25;;;;;;;;;;;20.20;99.90;;;19.43;95.32;101220.38;4994548;28;20279;-93
2022/06/10 09:43:26;;;;;;;;;;;20.20;99.90;;;19.32;94.87;101230.25;5039603;28;19930;-92
2022/06/10 09:46:01;;;;;;;;;;;20.20;99.90;;;19.33;95.41;101226.41;4971469;28;20340;-94
2022/06/10 09:48:46;;;;;;;;;;;20.10;99.90;;;19.32;97.09;101225.59;4982652;28;20029;-93
2022/06/10 09:51:17;;;;;;;;;;;20.10;99.90;;;19.36;96.16;101220.44;5044386;28;19924;-93
2022/06/10 09:54:05;;;;;;;;;;;20.10;99.90;;;19.32;94.55;101221.97;5056646;28;19925;-94
2022/06/10 09:57:02;;;;;;;;;;;20.10;99.90;;;19.23;94.25;101213.13;5025976;28;19974;-92
2022/06/10 09:59:36;;;;;;;;;;;20.10;99.90;;;19.05;92.79;101219.41;5044418;28;20019;-93
2022/06/10 10:02:17;;;;;;;;;;;20.00;99.90;;;18.92;92.51;101219.50;5014127;28;19930;-93
2022/06/10 10:05:00;;;;;;;;;;;20.00;99.90;;;18.87;93.16;101208.31;4986919;28;19963;-93
2022/06/10 10:07:34;;;;;;;;;;;19.90;99.90;;;18.74;94.63;101201.78;5004687;28;19926;-94
2022/06/10 10:10:13;;;;;;;;;;;19.90;99.90;;;18.79;96.13;101197.50;4989186;28;20386;-93
2022/06/10 10:12:48;;;;;;;;;;;19.90;99.90;;;18.92;95.42;101202.97;4997219;28;20465;-94
2022/06/10 10:15:25;;;;;;;;;;;20.00;99.90;;;19.20;93.89;101201.69;4957025;28;20298;-93
2022/06/10 10:18:09;;;;;;;;;;;20.00;99.90;;;19.48;95.15;101193.78;5031020;28;20007;-93
2022/06/10 10:20:56;;;;;;;;;;;20.10;99.90;;;19.66;93.42;101186.59;5007888;28;19949;-96
2022/06/10 10:23:26;;;;;;;;;;;20.20;99.90;;;19.76;92.46;101189.69;4971546;28;19932;-94
2022/06/10 10:25:54;;;;;;;;;;;20.20;99.90;;;19.78;91.62;101184.81;4963317;28;20322;-94
2022/06/10 10:28:23;;;;;;;;;;;20.20;99.90;;;19.87;93.06;101186.16;4953029;28;20032;-94
2022/06/10 10:30:59;;;;;;;;;;;20.20;99.90;;;20.00;91.64;101189.88;4953861;28;20021;-95
2022/06/10 10:33:27;;;;;;;;;;;20.30;99.90;;;20.10;90.71;101187.41;5004198;28;19928;-93
2022/06/10 10:35:56;;;;;;;;;;;20.40;99.90;;;20.19;91.50;101186.00;4956214;28;19957;-94
2022/06/10 10:38:33;;;;;;;;;;;20.40;99.90;;;20.25;90.32;101182.31;4967383;28;19954;-95
2022/06/10 10:41:01;;;;;;;;;;;20.50;99.90;;;20.33;89.92;101185.84;4967252;28;19926;-95
2022/06/10 10:43:30;;;;;;;;;;;20.60;99.90;;;20.39;89.08;101176.59;4964291;28;20036;-94
2022/06/10 10:46:02;;;;;;;;;;;20.60;99.90;;;20.43;89.01;101180.63;4969878;28;19924;-94
2022/06/10 10:48:32;;;;;;;;;;;20.60;99.90;;;20.50;89.12;101182.22;4967918;28;19965;-94
2022/06/10 10:51:02;;;;;;;;;;;20.70;99.90;;;20.48;89.93;101178.81;4993898;28;19932;-94
2022/06/10 10:53:35;;;;;;;;;;;20.70;99.90;;;20.53;90.02;101177.28;4996040;28;19930;-95
2022/06/10 10:56:04;;;;;;;;;;;20.80;99.90;;;20.58;88.51;101178.28;4978054;28;20022;-94
2022/06/10 10:58:35;;;;;;;;;;;20.80;99.90;;;20.70;91.14;101176.41;4960264;28;20016;-94
2022/06/10 11:01:06;;;;;;;;;;;20.90;99.90;;;20.70;88.24;101170.03;4957779;28;20367;-94
2022/06/10 11:03:34;;;;;;;;;;;20.90;99.90;;;20.72;89.48;101178.09;4967220;28;20033;-93
2022/06/10 11:06:04;;;;;;;;;;;20.90;99.90;;;20.71;87.65;101182.78;4995237;22;20362;-80
2022/06/10 11:08:33;;;;;;;;;;;21.00;99.90;;;20.70;87.71;101184.69;4962352;28;19931;-86
2022/06/10 11:11:14;;;;;;;;;;;21.00;99.90;;;20.73;87.62;101174.25;4966618;28;19934;-87
2022/06/10 11:13:53;;;;;;;;;;;21.00;99.90;;;20.72;88.20;101181.72;4966685;28;19941;-87
2022/06/10 11:16:56;;;;;;;;;;;21.00;99.90;;;20.72;88.98;101180.88;4961809;28;19977;-87
2022/06/10 11:19:26;;;;;;;;;;;21.00;99.90;;;20.77;85.76;101180.97;4958261;28;19941;-86
2022/06/10 11:22:19;;;;;;;;;;;21.10;99.90;;;20.89;88.72;101173.56;4959628;28;19987;-86
2022/06/10 11:24:50;;;;;;;;;;;21.20;99.90;;;21.14;93.09;101172.53;4960896;28;19926;-86
2022/06/10 11:27:24;;;;;;;;;;;21.20;99.90;;;21.26;90.46;101165.06;5033568;28;19965;-86
2022/06/10 11:30:16;;;;;;;;;;;21.40;99.90;;;21.27;88.00;101167.59;4956213;28;20025;-87
2022/06/10 11:32:55;;;;;;;;;;;21.50;99.90;;;21.15;88.52;101171.44;4950929;28;19926;-87
2022/06/10 11:35:28;;;;;;;;;;;21.50;99.90;;;21.08;87.12;101169.63;4961505;28;19941;-86
2022/06/10 11:38:00;;;;;;;;;;;21.60;99.90;;;21.05;90.26;101156.25;5028588;28;20310;-87
2022/06/10 11:40:36;;;;;;;;;;;21.60;99.90;;;20.91;83.87;101171.41;4976057;28;20045;-87
2022/06/10 11:43:07;;;;;;;;;;;21.60;99.90;;;20.84;85.41;101165.13;4968317;28;19937;-86